sensor_id;sensor_type;location;lat;lon;timestamp;P1;durP1;ratioP1;P2;durP2;ratioP2
66380;SDS011;53177;52.648;1.214;2022-10-30T00:00:20;26.52;;;11.05;;
66380;SDS011;53177;52.648;1.214;2022-10-30T00:02:46;32.75;;;11.82;;
66380;SDS011;53177;52.648;1.214;2022-10-30T00:05:12;30.67;;;11.13;;
66380;SDS011;53177;52.648;1.214;2022-10-30T00:07:38;25.10;;;11.00;;
66380;SDS011;53177;52.648;1.214;2022-10-30T00:10:03;28.27;;;11.17;;
66380;SDS011;53177;52.648;1.214;2022-10-30T00:12:29;24.48;;;10.63;;
66380;SDS011;53177;52.648;1.214;2022-10-30T00:14:55;24.93;;;9.93;;
66380;SDS011;53177;52.648;1.214;2022-10-30T00:17:20;23.13;;;9.87;;
66380;SDS011;53177;52.648;1.214;2022-10-30T00:19:46;26.10;;;11.27;;
66380;SDS011;53177;52.648;1.214;2022-10-30T00:22:11;28.30;;;10.27;;
66380;SDS011;53177;52.648;1.214;2022-10-30T00:24:37;22.80;;;9.67;;
66380;SDS011;53177;52.648;1.214;2022-10-30T00:27:02;24.53;;;9.53;;
66380;SDS011;53177;52.648;1.214;2022-10-30T00:29:27;24.17;;;9.80;;
66380;SDS011;53177;52.648;1.214;2022-10-30T00:31:53;22.05;;;9.52;;
66380;SDS011;53177;52.648;1.214;2022-10-30T00:34:18;23.50;;;9.70;;
66380;SDS011;53177;52.648;1.214;2022-10-30T00:36:44;26.17;;;10.65;;
66380;SDS011;53177;52.648;1.214;2022-10-30T00:39:10;26.38;;;10.73;;
66380;SDS011;53177;52.648;1.214;2022-10-30T00:41:35;24.13;;;10.20;;
66380;SDS011;53177;52.648;1.214;2022-10-30T00:44:30;27.23;;;10.60;;
66380;SDS011;53177;52.648;1.214;2022-10-30T00:47:00;25.27;;;10.55;;
66380;SDS011;53177;52.648;1.214;2022-10-30T00:49:30;25.63;;;10.43;;
66380;SDS011;53177;52.648;1.214;2022-10-30T00:51:57;22.90;;;10.68;;
66380;SDS011;53177;52.648;1.214;2022-10-30T00:54:23;27.38;;;10.73;;
66380;SDS011;53177;52.648;1.214;2022-10-30T00:56:49;20.43;;;9.87;;
66380;SDS011;53177;52.648;1.214;2022-10-30T00:59:16;25.35;;;10.00;;
66380;SDS011;53177;52.648;1.214;2022-10-30T01:01:46;22.35;;;9.95;;
66380;SDS011;53177;52.648;1.214;2022-10-30T01:04:12;24.37;;;9.30;;
66380;SDS011;53177;52.648;1.214;2022-10-30T01:06:40;31.88;;;10.13;;
66380;SDS011;53177;52.648;1.214;2022-10-30T01:09:09;23.42;;;9.27;;
66380;SDS011;53177;52.648;1.214;2022-10-30T01:11:34;22.57;;;10.10;;
66380;SDS011;53177;52.648;1.214;2022-10-30T01:14:02;20.73;;;9.83;;
66380;SDS011;53177;52.648;1.214;2022-10-30T01:22:29;31.15;;;10.45;;
66380;SDS011;53177;52.648;1.214;2022-10-30T01:30:47;21.50;;;10.07;;
66380;SDS011;53177;52.648;1.214;2022-10-30T01:38:41;22.35;;;9.80;;
66380;SDS011;53177;52.648;1.214;2022-10-30T01:41:11;21.40;;;8.95;;
66380;SDS011;53177;52.648;1.214;2022-10-30T01:43:37;25.60;;;10.32;;
66380;SDS011;53177;52.648;1.214;2022-10-30T01:53:56;24.08;;;9.27;;
66380;SDS011;53177;52.648;1.214;2022-10-30T02:01:35;22.17;;;9.00;;
66380;SDS011;53177;52.648;1.214;2022-10-30T02:04:02;23.80;;;9.55;;
66380;SDS011;53177;52.648;1.214;2022-10-30T02:06:28;21.20;;;8.50;;
66380;SDS011;53177;52.648;1.214;2022-10-30T02:08:54;21.23;;;8.52;;
66380;SDS011;53177;52.648;1.214;2022-10-30T02:11:21;19.25;;;8.45;;
66380;SDS011;53177;52.648;1.214;2022-10-30T02:13:47;20.23;;;8.38;;
66380;SDS011;53177;52.648;1.214;2022-10-30T02:16:12;23.23;;;7.80;;
66380;SDS011;53177;52.648;1.214;2022-10-30T02:18:38;18.30;;;8.67;;
66380;SDS011;53177;52.648;1.214;2022-10-30T02:21:04;16.02;;;7.85;;
66380;SDS011;53177;52.648;1.214;2022-10-30T02:23:30;19.38;;;8.02;;
66380;SDS011;53177;52.648;1.214;2022-10-30T02:25:57;22.13;;;7.85;;
66380;SDS011;53177;52.648;1.214;2022-10-30T02:28:22;28.20;;;8.40;;
66380;SDS011;53177;52.648;1.214;2022-10-30T02:30:47;21.27;;;8.57;;
66380;SDS011;53177;52.648;1.214;2022-10-30T02:33:13;21.67;;;8.13;;
66380;SDS011;53177;52.648;1.214;2022-10-30T02:35:38;21.00;;;7.30;;
66380;SDS011;53177;52.648;1.214;2022-10-30T02:38:04;21.98;;;7.97;;
66380;SDS011;53177;52.648;1.214;2022-10-30T02:40:29;20.73;;;7.53;;
66380;SDS011;53177;52.648;1.214;2022-10-30T02:42:55;20.43;;;7.57;;
66380;SDS011;53177;52.648;1.214;2022-10-30T02:45:20;23.83;;;8.00;;
66380;SDS011;53177;52.648;1.214;2022-10-30T02:47:46;22.67;;;7.97;;
66380;SDS011;53177;52.648;1.214;2022-10-30T02:50:13;22.50;;;7.90;;
66380;SDS011;53177;52.648;1.214;2022-10-30T02:52:39;19.80;;;7.80;;
66380;SDS011;53177;52.648;1.214;2022-10-30T02:55:04;22.17;;;8.23;;
66380;SDS011;53177;52.648;1.214;2022-10-30T02:57:30;19.77;;;7.93;;
66380;SDS011;53177;52.648;1.214;2022-10-30T02:59:56;20.13;;;8.40;;
66380;SDS011;53177;52.648;1.214;2022-10-30T03:02:21;20.13;;;7.67;;
66380;SDS011;53177;52.648;1.214;2022-10-30T03:04:47;21.93;;;7.67;;
66380;SDS011;53177;52.648;1.214;2022-10-30T03:07:12;17.87;;;7.27;;
66380;SDS011;53177;52.648;1.214;2022-10-30T03:09:37;21.90;;;7.80;;
66380;SDS011;53177;52.648;1.214;2022-10-30T03:12:03;21.67;;;7.00;;
66380;SDS011;53177;52.648;1.214;2022-10-30T03:14:28;18.93;;;7.50;;
66380;SDS011;53177;52.648;1.214;2022-10-30T03:16:54;19.52;;;7.13;;
66380;SDS011;53177;52.648;1.214;2022-10-30T03:19:19;21.25;;;7.60;;
66380;SDS011;53177;52.648;1.214;2022-10-30T03:21:45;19.00;;;7.37;;
66380;SDS011;53177;52.648;1.214;2022-10-30T03:24:11;17.67;;;6.22;;
66380;SDS011;53177;52.648;1.214;2022-10-30T03:26:36;16.97;;;5.97;;
66380;SDS011;53177;52.648;1.214;2022-10-30T03:29:02;18.93;;;5.80;;
66380;SDS011;53177;52.648;1.214;2022-10-30T03:31:27;17.13;;;5.35;;
66380;SDS011;53177;52.648;1.214;2022-10-30T03:33:55;19.38;;;5.90;;
66380;SDS011;53177;52.648;1.214;2022-10-30T03:36:21;21.07;;;5.70;;
66380;SDS011;53177;52.648;1.214;2022-10-30T03:38:46;14.77;;;5.30;;
66380;SDS011;53177;52.648;1.214;2022-10-30T03:41:12;17.97;;;5.30;;
66380;SDS011;53177;52.648;1.214;2022-10-30T03:43:37;13.80;;;5.03;;
66380;SDS011;53177;52.648;1.214;2022-10-30T03:46:02;19.27;;;5.60;;
66380;SDS011;53177;52.648;1.214;2022-10-30T03:48:28;18.17;;;5.28;;
66380;SDS011;53177;52.648;1.214;2022-10-30T03:50:55;17.17;;;4.95;;
66380;SDS011;53177;52.648;1.214;2022-10-30T03:53:21;16.65;;;5.75;;
66380;SDS011;53177;52.648;1.214;2022-10-30T03:55:50;19.53;;;5.40;;
66380;SDS011;53177;52.648;1.214;2022-10-30T03:58:16;20.30;;;5.60;;
66380;SDS011;53177;52.648;1.214;2022-10-30T04:00:41;21.50;;;5.90;;
66380;SDS011;53177;52.648;1.214;2022-10-30T04:03:08;19.33;;;5.57;;
66380;SDS011;53177;52.648;1.214;2022-10-30T04:05:35;18.27;;;5.68;;
66380;SDS011;53177;52.648;1.214;2022-10-30T04:08:02;17.35;;;5.85;;
66380;SDS011;53177;52.648;1.214;2022-10-30T04:10:29;19.33;;;5.13;;
66380;SDS011;53177;52.648;1.214;2022-10-30T04:13:02;14.07;;;4.65;;
66380;SDS011;53177;52.648;1.214;2022-10-30T04:15:30;17.85;;;5.35;;
66380;SDS011;53177;52.648;1.214;2022-10-30T04:17:55;13.93;;;4.70;;
66380;SDS011;53177;52.648;1.214;2022-10-30T04:20:22;15.55;;;5.25;;
66380;SDS011;53177;52.648;1.214;2022-10-30T04:22:54;23.87;;;5.53;;
66380;SDS011;53177;52.648;1.214;2022-10-30T04:25:20;17.20;;;5.30;;
66380;SDS011;53177;52.648;1.214;2022-10-30T04:27:46;13.93;;;4.80;;
66380;SDS011;53177;52.648;1.214;2022-10-30T04:30:13;16.90;;;5.15;;
66380;SDS011;53177;52.648;1.214;2022-10-30T04:32:46;18.95;;;5.45;;
66380;SDS011;53177;52.648;1.214;2022-10-30T04:35:16;15.70;;;5.45;;
66380;SDS011;53177;52.648;1.214;2022-10-30T04:38:03;18.17;;;6.00;;
66380;SDS011;53177;52.648;1.214;2022-10-30T04:40:36;15.85;;;5.88;;
66380;SDS011;53177;52.648;1.214;2022-10-30T04:43:03;18.52;;;5.97;;
66380;SDS011;53177;52.648;1.214;2022-10-30T04:45:29;18.40;;;5.72;;
66380;SDS011;53177;52.648;1.214;2022-10-30T04:48:02;12.77;;;5.60;;
66380;SDS011;53177;52.648;1.214;2022-10-30T04:50:29;16.33;;;5.50;;
66380;SDS011;53177;52.648;1.214;2022-10-30T04:53:03;17.58;;;6.00;;
66380;SDS011;53177;52.648;1.214;2022-10-30T04:55:34;20.83;;;6.40;;
66380;SDS011;53177;52.648;1.214;2022-10-30T04:58:00;20.90;;;6.60;;
66380;SDS011;53177;52.648;1.214;2022-10-30T05:00:29;17.40;;;6.60;;
66380;SDS011;53177;52.648;1.214;2022-10-30T05:02:59;20.92;;;7.03;;
66380;SDS011;53177;52.648;1.214;2022-10-30T05:05:27;16.30;;;6.78;;
66380;SDS011;53177;52.648;1.214;2022-10-30T05:07:54;19.03;;;6.57;;
66380;SDS011;53177;52.648;1.214;2022-10-30T05:10:20;15.73;;;6.45;;
66380;SDS011;53177;52.648;1.214;2022-10-30T05:12:47;17.98;;;6.80;;
66380;SDS011;53177;52.648;1.214;2022-10-30T05:15:12;16.93;;;7.47;;
66380;SDS011;53177;52.648;1.214;2022-10-30T05:17:39;18.23;;;6.68;;
66380;SDS011;53177;52.648;1.214;2022-10-30T05:20:05;19.90;;;7.43;;
66380;SDS011;53177;52.648;1.214;2022-10-30T05:22:32;17.63;;;6.78;;
66380;SDS011;53177;52.648;1.214;2022-10-30T05:24:57;21.38;;;8.15;;
66380;SDS011;53177;52.648;1.214;2022-10-30T05:27:22;19.13;;;7.13;;
66380;SDS011;53177;52.648;1.214;2022-10-30T05:29:48;21.37;;;7.17;;
66380;SDS011;53177;52.648;1.214;2022-10-30T05:32:13;21.33;;;7.07;;
66380;SDS011;53177;52.648;1.214;2022-10-30T05:34:39;22.13;;;7.55;;
66380;SDS011;53177;52.648;1.214;2022-10-30T05:37:04;19.30;;;6.97;;
66380;SDS011;53177;52.648;1.214;2022-10-30T05:39:29;19.37;;;7.10;;
66380;SDS011;53177;52.648;1.214;2022-10-30T05:41:55;18.70;;;7.33;;
66380;SDS011;53177;52.648;1.214;2022-10-30T05:44:20;19.63;;;6.50;;
66380;SDS011;53177;52.648;1.214;2022-10-30T05:46:46;18.58;;;6.40;;
66380;SDS011;53177;52.648;1.214;2022-10-30T05:49:11;20.53;;;7.20;;
66380;SDS011;53177;52.648;1.214;2022-10-30T05:51:37;18.37;;;6.67;;
66380;SDS011;53177;52.648;1.214;2022-10-30T05:54:02;17.27;;;6.77;;
66380;SDS011;53177;52.648;1.214;2022-10-30T05:56:27;18.57;;;6.60;;
66380;SDS011;53177;52.648;1.214;2022-10-30T05:58:53;18.63;;;6.80;;
66380;SDS011;53177;52.648;1.214;2022-10-30T06:01:18;16.83;;;6.87;;
66380;SDS011;53177;52.648;1.214;2022-10-30T06:03:44;16.63;;;6.90;;
66380;SDS011;53177;52.648;1.214;2022-10-30T06:06:09;16.13;;;5.73;;
66380;SDS011;53177;52.648;1.214;2022-10-30T06:08:35;17.52;;;6.20;;
66380;SDS011;53177;52.648;1.214;2022-10-30T06:11:00;18.50;;;6.50;;
66380;SDS011;53177;52.648;1.214;2022-10-30T06:13:26;19.10;;;6.77;;
66380;SDS011;53177;52.648;1.214;2022-10-30T06:15:54;18.08;;;5.93;;
66380;SDS011;53177;52.648;1.214;2022-10-30T06:18:20;17.25;;;6.38;;
66380;SDS011;53177;52.648;1.214;2022-10-30T06:20:46;19.55;;;6.43;;
66380;SDS011;53177;52.648;1.214;2022-10-30T06:23:11;17.50;;;5.90;;
66380;SDS011;53177;52.648;1.214;2022-10-30T06:25:37;16.30;;;6.07;;
66380;SDS011;53177;52.648;1.214;2022-10-30T06:28:06;16.95;;;5.90;;
66380;SDS011;53177;52.648;1.214;2022-10-30T06:30:35;17.15;;;6.10;;
66380;SDS011;53177;52.648;1.214;2022-10-30T06:33:06;20.05;;;5.97;;
66380;SDS011;53177;52.648;1.214;2022-10-30T06:35:35;22.15;;;6.53;;
66380;SDS011;53177;52.648;1.214;2022-10-30T06:38:04;19.52;;;6.07;;
66380;SDS011;53177;52.648;1.214;2022-10-30T06:40:35;19.45;;;6.18;;
66380;SDS011;53177;52.648;1.214;2022-10-30T06:43:04;18.25;;;6.50;;
66380;SDS011;53177;52.648;1.214;2022-10-30T06:45:31;17.15;;;6.05;;
66380;SDS011;53177;52.648;1.214;2022-10-30T06:48:08;21.75;;;6.63;;
66380;SDS011;53177;52.648;1.214;2022-10-30T06:50:35;18.92;;;6.20;;
66380;SDS011;53177;52.648;1.214;2022-10-30T06:53:00;15.17;;;5.53;;
66380;SDS011;53177;52.648;1.214;2022-10-30T06:55:26;15.97;;;5.83;;
66380;SDS011;53177;52.648;1.214;2022-10-30T06:57:55;20.13;;;6.40;;
66380;SDS011;53177;52.648;1.214;2022-10-30T07:00:21;17.67;;;5.68;;
66380;SDS011;53177;52.648;1.214;2022-10-30T07:02:55;21.38;;;6.50;;
66380;SDS011;53177;52.648;1.214;2022-10-30T07:05:21;20.02;;;6.43;;
66380;SDS011;53177;52.648;1.214;2022-10-30T07:07:49;22.15;;;6.85;;
66380;SDS011;53177;52.648;1.214;2022-10-30T07:10:17;20.83;;;6.53;;
66380;SDS011;53177;52.648;1.214;2022-10-30T07:12:49;20.20;;;6.63;;
66380;SDS011;53177;52.648;1.214;2022-10-30T07:15:15;24.27;;;7.43;;
66380;SDS011;53177;52.648;1.214;2022-10-30T07:17:41;21.23;;;7.27;;
66380;SDS011;53177;52.648;1.214;2022-10-30T07:20:06;24.67;;;7.80;;
66380;SDS011;53177;52.648;1.214;2022-10-30T07:22:32;24.83;;;7.38;;
66380;SDS011;53177;52.648;1.214;2022-10-30T07:24:57;27.03;;;7.47;;
66380;SDS011;53177;52.648;1.214;2022-10-30T07:27:23;25.53;;;7.50;;
66380;SDS011;53177;52.648;1.214;2022-10-30T07:29:49;20.40;;;7.67;;
66380;SDS011;53177;52.648;1.214;2022-10-30T07:32:16;25.70;;;7.35;;
66380;SDS011;53177;52.648;1.214;2022-10-30T07:34:42;22.87;;;7.67;;
66380;SDS011;53177;52.648;1.214;2022-10-30T07:37:07;23.80;;;7.65;;
66380;SDS011;53177;52.648;1.214;2022-10-30T07:39:33;22.10;;;8.10;;
66380;SDS011;53177;52.648;1.214;2022-10-30T07:41:58;33.77;;;8.53;;
66380;SDS011;53177;52.648;1.214;2022-10-30T07:44:23;26.07;;;8.30;;
66380;SDS011;53177;52.648;1.214;2022-10-30T07:46:49;22.83;;;8.40;;
66380;SDS011;53177;52.648;1.214;2022-10-30T07:49:14;25.48;;;8.63;;
66380;SDS011;53177;52.648;1.214;2022-10-30T07:51:40;22.88;;;7.88;;
66380;SDS011;53177;52.648;1.214;2022-10-30T07:54:05;26.77;;;7.97;;
66380;SDS011;53177;52.648;1.214;2022-10-30T07:56:30;21.27;;;7.87;;
66380;SDS011;53177;52.648;1.214;2022-10-30T07:58:56;22.97;;;7.73;;
66380;SDS011;53177;52.648;1.214;2022-10-30T08:01:21;21.17;;;7.47;;
66380;SDS011;53177;52.648;1.214;2022-10-30T08:03:46;23.10;;;6.95;;
66380;SDS011;53177;52.648;1.214;2022-10-30T08:06:12;25.57;;;7.23;;
66380;SDS011;53177;52.648;1.214;2022-10-30T08:08:37;23.73;;;7.77;;
66380;SDS011;53177;52.648;1.214;2022-10-30T08:11:03;22.07;;;6.63;;
66380;SDS011;53177;52.648;1.214;2022-10-30T08:13:28;19.40;;;6.63;;
66380;SDS011;53177;52.648;1.214;2022-10-30T08:15:53;25.45;;;7.47;;
66380;SDS011;53177;52.648;1.214;2022-10-30T08:18:19;21.80;;;6.37;;
66380;SDS011;53177;52.648;1.214;2022-10-30T08:20:47;18.87;;;5.90;;
66380;SDS011;53177;52.648;1.214;2022-10-30T08:23:14;20.48;;;5.88;;
66380;SDS011;53177;52.648;1.214;2022-10-30T08:25:41;22.05;;;6.63;;
66380;SDS011;53177;52.648;1.214;2022-10-30T08:28:07;20.83;;;6.40;;
66380;SDS011;53177;52.648;1.214;2022-10-30T08:30:33;17.47;;;6.07;;
66380;SDS011;53177;52.648;1.214;2022-10-30T08:33:01;24.42;;;6.43;;
66380;SDS011;53177;52.648;1.214;2022-10-30T08:35:28;17.58;;;5.65;;
66380;SDS011;53177;52.648;1.214;2022-10-30T08:37:54;15.23;;;5.20;;
66380;SDS011;53177;52.648;1.214;2022-10-30T08:40:24;19.92;;;5.75;;
66380;SDS011;53177;52.648;1.214;2022-10-30T08:42:54;19.83;;;5.78;;
66380;SDS011;53177;52.648;1.214;2022-10-30T08:45:21;20.05;;;5.88;;
66380;SDS011;53177;52.648;1.214;2022-10-30T08:47:55;17.73;;;5.70;;
66380;SDS011;53177;52.648;1.214;2022-10-30T08:50:21;21.52;;;5.43;;
66380;SDS011;53177;52.648;1.214;2022-10-30T08:52:47;18.30;;;5.07;;
66380;SDS011;53177;52.648;1.214;2022-10-30T08:55:13;18.80;;;5.17;;
66380;SDS011;53177;52.648;1.214;2022-10-30T08:57:38;26.33;;;5.33;;
66380;SDS011;53177;52.648;1.214;2022-10-30T09:00:04;21.73;;;4.97;;
66380;SDS011;53177;52.648;1.214;2022-10-30T09:02:31;18.00;;;4.95;;
66380;SDS011;53177;52.648;1.214;2022-10-30T09:04:57;20.58;;;5.03;;
66380;SDS011;53177;52.648;1.214;2022-10-30T09:07:22;15.57;;;4.50;;
66380;SDS011;53177;52.648;1.214;2022-10-30T09:09:48;19.20;;;5.00;;
66380;SDS011;53177;52.648;1.214;2022-10-30T09:12:13;14.17;;;3.87;;
66380;SDS011;53177;52.648;1.214;2022-10-30T09:14:40;13.93;;;4.22;;
66380;SDS011;53177;52.648;1.214;2022-10-30T09:17:05;18.02;;;4.00;;
66380;SDS011;53177;52.648;1.214;2022-10-30T09:19:31;18.25;;;4.50;;
66380;SDS011;53177;52.648;1.214;2022-10-30T09:21:56;16.37;;;3.83;;
66380;SDS011;53177;52.648;1.214;2022-10-30T09:24:21;13.37;;;4.37;;
66380;SDS011;53177;52.648;1.214;2022-10-30T09:26:47;15.67;;;3.23;;
66380;SDS011;53177;52.648;1.214;2022-10-30T09:29:12;21.50;;;4.13;;
66380;SDS011;53177;52.648;1.214;2022-10-30T09:31:38;21.07;;;4.40;;
66380;SDS011;53177;52.648;1.214;2022-10-30T09:34:03;15.63;;;3.97;;
66380;SDS011;53177;52.648;1.214;2022-10-30T09:36:29;16.05;;;3.47;;
66380;SDS011;53177;52.648;1.214;2022-10-30T09:38:56;16.17;;;3.83;;
66380;SDS011;53177;52.648;1.214;2022-10-30T09:45:18;15.63;;;3.55;;
66380;SDS011;53177;52.648;1.214;2022-10-30T09:47:30;14.07;;;3.47;;
66380;SDS011;53177;52.648;1.214;2022-10-30T09:50:27;15.90;;;3.22;;
66380;SDS011;53177;52.648;1.214;2022-10-30T09:55:50;13.23;;;3.03;;
66380;SDS011;53177;52.648;1.214;2022-10-30T10:01:45;18.43;;;4.00;;
66380;SDS011;53177;52.648;1.214;2022-10-30T10:07:06;13.40;;;3.10;;
66380;SDS011;53177;52.648;1.214;2022-10-30T10:09:40;16.52;;;3.13;;
66380;SDS011;53177;52.648;1.214;2022-10-30T10:12:11;15.75;;;3.47;;
66380;SDS011;53177;52.648;1.214;2022-10-30T10:14:43;13.67;;;3.00;;
66380;SDS011;53177;52.648;1.214;2022-10-30T10:17:12;15.95;;;2.95;;
66380;SDS011;53177;52.648;1.214;2022-10-30T10:19:47;16.73;;;3.10;;
66380;SDS011;53177;52.648;1.214;2022-10-30T10:22:20;10.70;;;2.60;;
66380;SDS011;53177;52.648;1.214;2022-10-30T10:24:48;12.82;;;2.47;;
66380;SDS011;53177;52.648;1.214;2022-10-30T10:27:34;16.23;;;2.70;;
66380;SDS011;53177;52.648;1.214;2022-10-30T10:30:37;14.95;;;3.08;;
66380;SDS011;53177;52.648;1.214;2022-10-30T10:38:55;14.90;;;2.85;;
66380;SDS011;53177;52.648;1.214;2022-10-30T10:47:05;10.40;;;2.50;;
66380;SDS011;53177;52.648;1.214;2022-10-30T10:52:18;10.77;;;2.30;;
66380;SDS011;53177;52.648;1.214;2022-10-30T10:54:52;12.57;;;2.75;;
66380;SDS011;53177;52.648;1.214;2022-10-30T10:59:57;14.73;;;2.28;;
66380;SDS011;53177;52.648;1.214;2022-10-30T11:05:01;13.38;;;2.22;;
66380;SDS011;53177;52.648;1.214;2022-10-30T11:07:33;10.10;;;2.28;;
66380;SDS011;53177;52.648;1.214;2022-10-30T11:10:05;13.23;;;2.55;;
66380;SDS011;53177;52.648;1.214;2022-10-30T11:12:38;8.25;;;2.00;;
66380;SDS011;53177;52.648;1.214;2022-10-30T11:15:11;8.73;;;1.85;;
66380;SDS011;53177;52.648;1.214;2022-10-30T11:20:17;13.52;;;2.22;;
66380;SDS011;53177;52.648;1.214;2022-10-30T11:22:48;11.25;;;2.33;;
66380;SDS011;53177;52.648;1.214;2022-10-30T11:25:19;12.18;;;1.65;;
66380;SDS011;53177;52.648;1.214;2022-10-30T11:27:58;11.55;;;1.95;;
66380;SDS011;53177;52.648;1.214;2022-10-30T11:30:25;7.47;;;2.03;;
66380;SDS011;53177;52.648;1.214;2022-10-30T11:32:56;9.43;;;1.98;;
66380;SDS011;53177;52.648;1.214;2022-10-30T11:35:22;13.65;;;2.38;;
66380;SDS011;53177;52.648;1.214;2022-10-30T11:37:49;10.82;;;1.60;;
66380;SDS011;53177;52.648;1.214;2022-10-30T11:40:20;8.95;;;2.00;;
66380;SDS011;53177;52.648;1.214;2022-10-30T11:42:52;10.20;;;2.47;;
66380;SDS011;53177;52.648;1.214;2022-10-30T11:45:27;14.05;;;3.58;;
66380;SDS011;53177;52.648;1.214;2022-10-30T11:47:57;9.98;;;2.22;;
66380;SDS011;53177;52.648;1.214;2022-10-30T11:50:25;11.38;;;2.17;;
66380;SDS011;53177;52.648;1.214;2022-10-30T11:53:00;12.73;;;2.35;;
66380;SDS011;53177;52.648;1.214;2022-10-30T11:55:34;8.70;;;1.85;;
66380;SDS011;53177;52.648;1.214;2022-10-30T11:58:03;9.35;;;2.17;;
66380;SDS011;53177;52.648;1.214;2022-10-30T12:00:31;12.57;;;2.25;;
66380;SDS011;53177;52.648;1.214;2022-10-30T12:03:00;8.20;;;1.90;;
66380;SDS011;53177;52.648;1.214;2022-10-30T12:05:28;9.18;;;1.90;;
66380;SDS011;53177;52.648;1.214;2022-10-30T12:08:09;9.27;;;2.67;;
66380;SDS011;53177;52.648;1.214;2022-10-30T12:10:43;8.80;;;1.50;;
66380;SDS011;53177;52.648;1.214;2022-10-30T12:13:21;9.15;;;1.50;;
66380;SDS011;53177;52.648;1.214;2022-10-30T12:15:49;8.68;;;1.60;;
66380;SDS011;53177;52.648;1.214;2022-10-30T12:18:28;8.77;;;1.70;;
66380;SDS011;53177;52.648;1.214;2022-10-30T12:20:55;6.95;;;1.25;;
66380;SDS011;53177;52.648;1.214;2022-10-30T12:23:26;10.52;;;1.40;;
66380;SDS011;53177;52.648;1.214;2022-10-30T12:25:53;6.17;;;1.30;;
66380;SDS011;53177;52.648;1.214;2022-10-30T12:28:26;9.02;;;1.90;;
66380;SDS011;53177;52.648;1.214;2022-10-30T12:33:51;9.05;;;1.40;;
66380;SDS011;53177;52.648;1.214;2022-10-30T12:36:52;7.72;;;1.33;;
66380;SDS011;53177;52.648;1.214;2022-10-30T12:39:26;6.17;;;1.30;;
66380;SDS011;53177;52.648;1.214;2022-10-30T12:42:03;8.57;;;1.40;;
66380;SDS011;53177;52.648;1.214;2022-10-30T12:44:45;8.10;;;1.40;;
66380;SDS011;53177;52.648;1.214;2022-10-30T12:49:58;7.97;;;1.42;;
66380;SDS011;53177;52.648;1.214;2022-10-30T12:52:33;8.23;;;1.40;;
66380;SDS011;53177;52.648;1.214;2022-10-30T12:55:16;7.82;;;1.60;;
66380;SDS011;53177;52.648;1.214;2022-10-30T12:57:49;8.85;;;1.20;;
66380;SDS011;53177;52.648;1.214;2022-10-30T13:00:21;6.80;;;1.20;;
66380;SDS011;53177;52.648;1.214;2022-10-30T13:02:52;7.25;;;1.30;;
66380;SDS011;53177;52.648;1.214;2022-10-30T13:10:42;6.30;;;1.15;;
66380;SDS011;53177;52.648;1.214;2022-10-30T13:13:32;6.50;;;0.90;;
66380;SDS011;53177;52.648;1.214;2022-10-30T13:16:01;6.45;;;1.10;;
66380;SDS011;53177;52.648;1.214;2022-10-30T13:18:31;8.00;;;0.97;;
66380;SDS011;53177;52.648;1.214;2022-10-30T13:26:18;6.15;;;1.00;;
66380;SDS011;53177;52.648;1.214;2022-10-30T13:28:52;6.75;;;1.00;;
66380;SDS011;53177;52.648;1.214;2022-10-30T13:31:37;7.37;;;1.00;;
66380;SDS011;53177;52.648;1.214;2022-10-30T13:37:08;5.20;;;1.00;;
66380;SDS011;53177;52.648;1.214;2022-10-30T13:51:23;8.35;;;1.10;;
66380;SDS011;53177;52.648;1.214;2022-10-30T13:54:15;6.85;;;1.27;;
66380;SDS011;53177;52.648;1.214;2022-10-30T13:56:47;5.70;;;1.10;;
66380;SDS011;53177;52.648;1.214;2022-10-30T13:59:18;5.13;;;1.30;;
66380;SDS011;53177;52.648;1.214;2022-10-30T14:01:59;8.02;;;1.30;;
66380;SDS011;53177;52.648;1.214;2022-10-30T14:04:39;8.50;;;1.20;;
66380;SDS011;53177;52.648;1.214;2022-10-30T14:10:06;8.48;;;1.40;;
66380;SDS011;53177;52.648;1.214;2022-10-30T14:12:43;6.93;;;1.20;;
66380;SDS011;53177;52.648;1.214;2022-10-30T14:15:26;6.85;;;1.25;;
66380;SDS011;53177;52.648;1.214;2022-10-30T14:20:52;9.48;;;1.20;;
66380;SDS011;53177;52.648;1.214;2022-10-30T14:23:31;5.18;;;1.10;;
66380;SDS011;53177;52.648;1.214;2022-10-30T14:28:27;8.18;;;1.45;;
66380;SDS011;53177;52.648;1.214;2022-10-30T14:31:03;5.43;;;1.45;;
66380;SDS011;53177;52.648;1.214;2022-10-30T14:39:00;5.17;;;1.10;;
66380;SDS011;53177;52.648;1.214;2022-10-30T14:47:05;8.07;;;1.30;;
66380;SDS011;53177;52.648;1.214;2022-10-30T14:49:42;6.60;;;1.40;;
66380;SDS011;53177;52.648;1.214;2022-10-30T14:55:03;5.60;;;1.17;;
66380;SDS011;53177;52.648;1.214;2022-10-30T14:58:07;6.32;;;1.23;;
66380;SDS011;53177;52.648;1.214;2022-10-30T15:04:06;7.32;;;1.85;;
66380;SDS011;53177;52.648;1.214;2022-10-30T15:12:15;10.75;;;1.50;;
66380;SDS011;53177;52.648;1.214;2022-10-30T15:14:59;10.70;;;1.50;;
66380;SDS011;53177;52.648;1.214;2022-10-30T15:17:29;6.85;;;1.10;;
66380;SDS011;53177;52.648;1.214;2022-10-30T15:20:05;6.33;;;1.40;;
66380;SDS011;53177;52.648;1.214;2022-10-30T15:22:38;6.25;;;1.20;;
66380;SDS011;53177;52.648;1.214;2022-10-30T15:25:04;8.25;;;1.38;;
66380;SDS011;53177;52.648;1.214;2022-10-30T15:27:40;6.45;;;1.30;;
66380;SDS011;53177;52.648;1.214;2022-10-30T15:30:17;13.93;;;2.03;;
66380;SDS011;53177;52.648;1.214;2022-10-30T15:32:46;7.83;;;1.67;;
66380;SDS011;53177;52.648;1.214;2022-10-30T15:35:13;6.57;;;1.25;;
66380;SDS011;53177;52.648;1.214;2022-10-30T15:37:54;7.67;;;1.53;;
66380;SDS011;53177;52.648;1.214;2022-10-30T15:40:24;7.13;;;1.35;;
66380;SDS011;53177;52.648;1.214;2022-10-30T15:42:50;11.45;;;1.80;;
66380;SDS011;53177;52.648;1.214;2022-10-30T15:45:18;6.10;;;1.60;;
66380;SDS011;53177;52.648;1.214;2022-10-30T15:48:08;8.02;;;2.00;;
66380;SDS011;53177;52.648;1.214;2022-10-30T15:50:40;5.63;;;1.43;;
66380;SDS011;53177;52.648;1.214;2022-10-30T15:53:18;6.35;;;1.48;;
66380;SDS011;53177;52.648;1.214;2022-10-30T15:55:48;6.90;;;1.70;;
66380;SDS011;53177;52.648;1.214;2022-10-30T15:58:15;8.52;;;2.05;;
66380;SDS011;53177;52.648;1.214;2022-10-30T16:00:55;8.25;;;1.60;;
66380;SDS011;53177;52.648;1.214;2022-10-30T16:03:23;7.32;;;1.88;;
66380;SDS011;53177;52.648;1.214;2022-10-30T16:05:48;8.45;;;1.90;;
66380;SDS011;53177;52.648;1.214;2022-10-30T16:08:16;8.07;;;1.53;;
66380;SDS011;53177;52.648;1.214;2022-10-30T16:10:44;7.68;;;1.73;;
66380;SDS011;53177;52.648;1.214;2022-10-30T16:13:26;10.25;;;2.22;;
66380;SDS011;53177;52.648;1.214;2022-10-30T16:15:54;6.10;;;1.40;;
66380;SDS011;53177;52.648;1.214;2022-10-30T16:18:23;4.30;;;1.20;;
66380;SDS011;53177;52.648;1.214;2022-10-30T16:20:53;5.78;;;1.40;;
66380;SDS011;53177;52.648;1.214;2022-10-30T16:23:20;8.60;;;1.40;;
66380;SDS011;53177;52.648;1.214;2022-10-30T16:25:46;7.50;;;1.40;;
66380;SDS011;53177;52.648;1.214;2022-10-30T16:28:31;6.80;;;1.25;;
66380;SDS011;53177;52.648;1.214;2022-10-30T16:30:59;7.47;;;1.83;;
66380;SDS011;53177;52.648;1.214;2022-10-30T16:33:27;8.38;;;1.50;;
66380;SDS011;53177;52.648;1.214;2022-10-30T16:35:54;7.65;;;1.80;;
66380;SDS011;53177;52.648;1.214;2022-10-30T16:38:21;9.18;;;1.50;;
66380;SDS011;53177;52.648;1.214;2022-10-30T16:40:48;9.27;;;1.60;;
66380;SDS011;53177;52.648;1.214;2022-10-30T16:43:27;6.13;;;1.38;;
66380;SDS011;53177;52.648;1.214;2022-10-30T16:45:55;5.75;;;1.50;;
66380;SDS011;53177;52.648;1.214;2022-10-30T16:48:50;7.75;;;1.73;;
66380;SDS011;53177;52.648;1.214;2022-10-30T16:51:20;7.25;;;1.40;;
66380;SDS011;53177;52.648;1.214;2022-10-30T16:53:49;6.97;;;1.57;;
66380;SDS011;53177;52.648;1.214;2022-10-30T16:56:23;6.85;;;1.20;;